Terminal Aerodrome Forecast
Issued by NWS Duluth, MN

Home | Current Version | Previous Version | Text Only | Print | Product List | Glossary On
Versions: 1 2 3 4 5 6 7 8 9 10 11 12 13 14 15 16 17 18 19 20
000
FTUS43 KDLH 141736
TAFDLH
TAF
KDLH 141736Z 1418/1518 10012G20KT P6SM BKN250
     FM150200 06012KT P6SM -SHRA OVC060
     FM150700 01010KT P6SM -SHRA OVC035
     FM150900 34010KT 6SM -SHRASN OVC030
     FM151100 33009KT P6SM BKN070
     FM151700 30009KT P6SM FEW250=

USA.gov is the U.S. government's official web portal to all federal, state and local government web resources and services.